createdAt,value
2017-11-04T00:01:40.800Z,66.10
2017-11-04T00:04:09.276Z,54.00
2017-11-04T00:06:38.803Z,46.63
2017-11-04T00:09:07.917Z,57.00
2017-11-04T00:11:36.537Z,59.57
2017-11-04T00:14:05.888Z,63.60
2017-11-04T00:16:34.463Z,53.17
2017-11-04T00:19:03.675Z,53.27
2017-11-04T00:21:32.225Z,80.27
2017-11-04T00:24:00.848Z,53.10
2017-11-04T00:26:30.189Z,63.27
2017-11-04T00:28:58.662Z,51.93
2017-11-04T00:31:27.032Z,65.47
2017-11-04T00:33:55.314Z,85.87
2017-11-04T00:36:23.613Z,53.30
2017-11-04T00:38:51.941Z,51.13
2017-11-04T00:41:20.230Z,50.10
2017-11-04T00:43:48.532Z,59.90
2017-11-04T00:46:17.619Z,63.47
2017-11-04T00:48:45.923Z,63.17
2017-11-04T00:51:14.248Z,56.67
2017-11-04T00:53:42.561Z,70.00
2017-11-04T00:56:10.843Z,65.80
2017-11-04T00:58:39.132Z,60.73
2017-11-04T01:01:07.422Z,51.73
2017-11-04T01:03:35.718Z,51.93
2017-11-04T01:06:04.026Z,48.43
2017-11-04T01:08:32.320Z,48.30
2017-11-04T01:11:00.609Z,51.43
2017-11-04T01:13:28.898Z,47.93
2017-11-04T01:15:57.188Z,52.10
2017-11-04T01:18:25.507Z,55.03
2017-11-04T01:20:54.558Z,58.50
2017-11-04T01:23:22.857Z,48.60
2017-11-04T01:25:51.200Z,57.23
2017-11-04T01:28:20.259Z,46.27
2017-11-04T01:30:48.560Z,47.27
2017-11-04T01:33:16.875Z,35.67
2017-11-04T01:35:45.941Z,36.73
2017-11-04T01:38:14.230Z,49.00
2017-11-04T01:40:42.523Z,46.00
2017-11-04T01:43:11.583Z,40.13
2017-11-04T01:45:39.908Z,32.70
2017-11-04T01:48:08.199Z,46.20
2017-11-04T01:50:36.495Z,45.73
2017-11-04T01:53:04.779Z,44.03
2017-11-04T01:55:33.077Z,55.23
2017-11-04T01:58:01.388Z,44.87
2017-11-04T02:00:30.458Z,48.10
2017-11-04T02:02:58.739Z,44.03
2017-11-04T02:05:27.032Z,56.90
2017-11-04T02:07:55.331Z,45.97
2017-11-04T02:10:23.764Z,37.70
2017-11-04T02:12:52.814Z,38.23
2017-11-04T02:15:21.117Z,46.03
2017-11-04T02:17:49.418Z,39.20
2017-11-04T02:20:17.707Z,39.17
2017-11-04T02:22:46.008Z,53.90
2017-11-04T02:25:14.358Z,48.57
2017-11-04T02:27:42.652Z,53.00
2017-11-04T02:30:10.956Z,64.57
2017-11-04T02:32:39.251Z,60.00
2017-11-04T02:35:07.552Z,43.33
2017-11-04T02:37:35.863Z,49.90
2017-11-04T02:40:04.936Z,57.03
2017-11-04T02:42:33.256Z,50.57
2017-11-04T02:45:02.307Z,55.93
2017-11-04T02:47:30.599Z,39.83
2017-11-04T02:49:58.897Z,38.27
2017-11-04T02:52:27.215Z,39.83
2017-11-04T02:54:55.494Z,40.20
2017-11-04T02:57:23.783Z,51.60
2017-11-04T02:59:52.112Z,51.17
2017-11-04T03:02:20.401Z,44.07
2017-11-04T03:04:48.695Z,56.57
2017-11-04T03:07:16.991Z,64.90
2017-11-04T03:09:45.296Z,44.63
2017-11-04T03:12:13.582Z,80.33
2017-11-04T03:14:41.883Z,44.73
2017-11-04T03:17:10.169Z,61.73
2017-11-04T03:19:38.458Z,42.30
2017-11-04T03:22:06.744Z,53.67
2017-11-04T03:24:35.062Z,54.30
2017-11-04T03:27:03.370Z,51.77
2017-11-04T03:29:32.431Z,69.40
2017-11-04T03:32:00.715Z,77.07
2017-11-04T03:34:29.043Z,86.53
2017-11-04T03:36:57.342Z,71.17
2017-11-04T03:39:26.395Z,55.73
2017-11-04T03:41:54.724Z,65.63
2017-11-04T03:44:23.024Z,66.87
2017-11-04T03:46:52.076Z,64.07
2017-11-04T03:49:20.365Z,75.47
2017-11-04T03:51:48.668Z,51.50
2017-11-04T03:54:17.014Z,71.07
2017-11-04T03:56:45.336Z,107.07
2017-11-04T03:59:13.627Z,113.07
2017-11-04T04:01:41.955Z,58.50
2017-11-04T04:04:11.020Z,77.20
2017-11-04T04:06:39.332Z,63.30
2017-11-04T04:09:07.619Z,59.27
2017-11-04T04:11:35.922Z,58.20
2017-11-04T04:14:04.207Z,43.17
2017-11-04T04:16:32.504Z,60.83
2017-11-04T04:19:00.831Z,69.87
2017-11-04T04:21:29.132Z,55.83
2017-11-04T04:23:57.410Z,54.10
2017-11-04T04:26:25.690Z,45.17
2017-11-04T04:28:54.008Z,34.10
2017-11-04T04:31:22.300Z,38.20
2017-11-04T04:33:50.587Z,45.93
2017-11-04T04:36:18.932Z,35.50
2017-11-04T04:38:47.982Z,50.63
2017-11-04T04:41:16.288Z,51.47
2017-11-04T04:43:44.599Z,48.07
2017-11-04T04:46:12.886Z,60.17
2017-11-04T04:48:41.209Z,53.40
2017-11-04T04:51:09.500Z,72.67
2017-11-04T04:53:37.791Z,69.30
2017-11-04T04:56:06.085Z,96.23
2017-11-04T04:58:34.374Z,64.83
2017-11-04T05:01:02.650Z,67.37
2017-11-04T05:03:30.967Z,86.40
2017-11-04T05:05:59.259Z,106.23
2017-11-04T05:08:27.548Z,76.50
2017-11-04T05:10:55.843Z,140.70
2017-11-04T05:13:24.198Z,105.43
2017-11-04T05:15:52.485Z,84.00
2017-11-04T05:18:20.788Z,66.73
2017-11-04T05:20:49.082Z,68.30
2017-11-04T05:23:17.445Z,55.43
2017-11-04T05:25:46.498Z,64.67
2017-11-04T05:28:14.804Z,74.50
2017-11-04T05:30:43.120Z,78.20
2017-11-04T05:33:12.175Z,56.00
2017-11-04T05:35:40.454Z,52.93
2017-11-04T05:38:08.742Z,60.13
2017-11-04T05:40:37.034Z,60.97
2017-11-04T05:43:05.327Z,61.47
2017-11-04T05:45:33.619Z,77.03
2017-11-04T05:48:01.914Z,54.43
2017-11-04T05:50:30.226Z,54.13
2017-11-04T05:52:58.519Z,61.27
2017-11-04T05:55:26.809Z,65.73
2017-11-04T05:57:55.128Z,86.70
2017-11-04T06:00:24.183Z,98.67
2017-11-04T06:02:52.479Z,89.60
2017-11-04T06:05:20.774Z,83.83
2017-11-04T06:07:49.119Z,95.87
2017-11-04T06:10:17.420Z,66.63
2017-11-04T06:12:45.723Z,82.40
2017-11-04T06:15:14.054Z,84.17
2017-11-04T06:17:43.138Z,100.10
2017-11-04T06:20:11.452Z,84.63
2017-11-04T06:22:40.504Z,124.83
2017-11-04T06:25:08.809Z,97.50
2017-11-04T06:27:37.139Z,143.17
2017-11-04T06:30:06.211Z,104.33
2017-11-04T06:32:34.526Z,88.33
2017-11-04T06:35:02.843Z,120.43
2017-11-04T06:37:31.138Z,109.67
2017-11-04T06:39:59.455Z,139.43
2017-11-04T06:42:27.736Z,213.40
2017-11-04T06:44:56.079Z,136.13
2017-11-04T06:47:25.155Z,136.67
2017-11-04T06:49:53.464Z,192.07
2017-11-04T06:52:21.761Z,115.43
2017-11-04T06:54:50.829Z,122.20
2017-11-04T06:57:19.159Z,144.43
2017-11-04T06:59:47.487Z,127.67
2017-11-04T07:02:15.798Z,135.57
2017-11-04T07:04:44.097Z,199.73
2017-11-04T07:07:12.409Z,117.90
2017-11-04T07:09:40.707Z,108.90
2017-11-04T07:12:09.766Z,121.20
2017-11-04T07:14:38.201Z,123.93
2017-11-04T07:17:07.258Z,134.20
2017-11-04T07:19:35.571Z,159.30
2017-11-04T07:22:03.863Z,180.97
2017-11-04T07:24:32.159Z,157.70
2017-11-04T07:27:00.592Z,138.80
2017-11-04T07:29:28.878Z,149.20
2017-11-04T07:31:57.171Z,170.83
2017-11-04T07:34:25.468Z,129.30
2017-11-04T07:36:53.794Z,147.30
2017-11-04T07:39:22.105Z,218.63
2017-11-04T07:41:50.412Z,176.80
2017-11-04T07:44:19.482Z,150.00
2017-11-04T07:46:47.786Z,175.07
2017-11-04T07:49:16.110Z,173.83
2017-11-04T07:51:44.445Z,170.00
2017-11-04T07:54:12.750Z,189.33
2017-11-04T07:56:41.062Z,176.87
2017-11-04T07:59:10.131Z,139.53
2017-11-04T08:01:38.433Z,136.53
2017-11-04T08:04:06.740Z,178.93
2017-11-04T08:06:35.799Z,259.80
2017-11-04T08:09:04.095Z,256.73
2017-11-04T08:11:32.399Z,181.27
2017-11-04T08:14:00.704Z,167.63
2017-11-04T08:16:29.002Z,164.47
2017-11-04T08:18:58.090Z,211.63
2017-11-04T08:21:26.417Z,278.50
2017-11-04T08:23:55.503Z,246.50
2017-11-04T08:26:23.797Z,211.60
2017-11-04T08:28:52.167Z,154.43
2017-11-04T08:31:20.487Z,160.13
2017-11-04T08:33:48.855Z,239.90
2017-11-04T08:36:20.059Z,173.33
2017-11-04T08:38:48.362Z,209.80
2017-11-04T08:41:16.783Z,258.97
2017-11-04T08:43:45.095Z,207.23
2017-11-04T08:46:14.156Z,291.70
2017-11-04T08:48:42.462Z,247.63
2017-11-04T08:51:10.782Z,206.70
2017-11-04T08:53:39.886Z,169.73
2017-11-04T08:56:08.940Z,169.60
2017-11-04T08:58:37.247Z,234.17
2017-11-04T09:01:05.542Z,188.93
2017-11-04T09:03:33.860Z,124.30
2017-11-04T09:06:02.150Z,142.67
2017-11-04T09:08:31.233Z,151.67
2017-11-04T13:22:46.572Z,17.10
2017-11-04T13:25:14.930Z,22.63
2017-11-04T13:27:43.233Z,14.60
2017-11-04T13:30:11.563Z,21.03
2017-11-04T13:32:39.887Z,12.73
2017-11-04T13:35:08.211Z,14.37
2017-11-04T13:37:36.556Z,15.87
2017-11-04T13:40:04.871Z,16.93
2017-11-04T13:42:33.930Z,16.93
2017-11-04T13:45:02.263Z,18.00
2017-11-04T13:47:30.548Z,17.47
2017-11-04T13:49:59.611Z,21.17
2017-11-04T13:52:27.935Z,21.27
2017-11-04T13:54:56.306Z,18.23
2017-11-04T13:57:24.642Z,19.53
2017-11-04T13:59:53.781Z,19.37
2017-11-04T14:02:22.143Z,21.07
2017-11-04T14:04:50.542Z,29.50
2017-11-04T14:07:18.893Z,21.77
2017-11-04T14:09:47.261Z,23.70
2017-11-04T14:12:15.651Z,23.03
2017-11-04T14:14:44.021Z,22.97
2017-11-04T14:17:12.397Z,18.90
2017-11-04T14:19:40.738Z,17.77
2017-11-04T14:22:09.128Z,29.43
2017-11-04T14:24:37.500Z,24.67
2017-11-04T14:27:05.906Z,23.23
2017-11-04T14:29:34.234Z,24.73
2017-11-04T14:32:03.350Z,35.37
2017-11-04T14:34:31.680Z,39.70
2017-11-04T14:37:00.081Z,42.60
2017-11-04T14:39:28.469Z,31.20
2017-11-04T14:41:56.821Z,28.60
2017-11-04T14:44:25.202Z,35.20
2017-11-04T14:46:53.565Z,33.30
2017-11-04T14:49:21.945Z,32.77
2017-11-04T14:51:50.306Z,33.20
2017-11-04T14:54:18.711Z,30.53
2017-11-04T14:56:47.113Z,31.03
2017-11-04T14:59:15.459Z,29.37
2017-11-04T15:01:43.837Z,27.47
2017-11-04T15:04:12.199Z,31.33
2017-11-04T15:06:40.560Z,28.90
2017-11-04T15:09:08.952Z,31.07
2017-11-04T15:11:37.348Z,27.60
2017-11-04T15:14:05.729Z,29.00
2017-11-04T15:16:34.150Z,28.53
2017-11-04T15:19:02.498Z,26.80
2017-11-04T15:21:30.900Z,26.83
2017-11-04T15:23:59.224Z,27.60
2017-11-04T15:26:28.389Z,28.57
2017-11-04T15:28:56.718Z,26.93
2017-11-04T15:31:25.102Z,25.50
2017-11-04T15:33:53.469Z,25.60
2017-11-04T15:36:21.863Z,25.63
2017-11-04T15:38:50.210Z,30.20
2017-11-04T15:41:18.619Z,24.63
2017-11-04T15:43:47.019Z,26.40
2017-11-04T15:46:15.413Z,28.70
2017-11-04T15:48:43.750Z,33.03
2017-11-04T15:51:12.093Z,22.33
2017-11-04T15:53:41.203Z,22.67
2017-11-04T15:56:09.516Z,22.53
2017-11-04T15:58:38.000Z,23.37
2017-11-04T16:01:06.335Z,26.60
2017-11-04T16:03:35.395Z,35.03
2017-11-04T16:06:03.728Z,27.27
2017-11-04T16:08:32.001Z,30.43
2017-11-04T16:11:00.337Z,27.00
2017-11-04T16:13:28.639Z,29.17
2017-11-04T16:15:57.068Z,31.07
2017-11-04T16:18:25.370Z,29.77
2017-11-04T16:20:53.674Z,29.90
2017-11-04T16:23:22.751Z,31.97
2017-11-04T16:25:51.044Z,31.43
2017-11-04T16:28:19.374Z,40.70
2017-11-04T16:30:47.937Z,37.07
2017-11-04T16:33:16.229Z,32.80
2017-11-04T16:35:45.310Z,37.90
2017-11-04T16:38:13.624Z,30.10
2017-11-04T16:40:41.946Z,31.53
2017-11-04T16:43:10.264Z,30.63
2017-11-04T16:45:38.545Z,33.13
2017-11-04T16:48:06.862Z,30.83
2017-11-04T16:50:35.154Z,31.40
2017-11-04T16:53:03.452Z,32.40
2017-11-04T16:55:31.741Z,34.37
2017-11-04T16:58:00.030Z,29.10
2017-11-04T17:00:28.348Z,35.70
2017-11-04T17:02:57.481Z,32.83
2017-11-04T17:05:25.803Z,35.57
2017-11-04T17:07:54.143Z,38.17
2017-11-04T17:10:22.457Z,32.30
2017-11-04T17:12:50.753Z,35.20
2017-11-04T17:15:19.054Z,34.93
2017-11-04T17:17:48.162Z,34.70
2017-11-04T17:20:16.474Z,31.73
2017-11-04T17:22:44.801Z,39.00
2017-11-04T17:25:13.095Z,35.27
2017-11-04T17:27:41.418Z,44.03
2017-11-04T17:30:09.715Z,37.87
2017-11-04T17:32:38.007Z,33.00
2017-11-04T17:35:06.334Z,36.03
2017-11-04T17:37:35.410Z,37.67
2017-11-04T17:40:04.624Z,33.90
2017-11-04T17:42:32.947Z,38.70
2017-11-04T17:45:01.230Z,38.50
2017-11-04T17:47:29.591Z,36.07
2017-11-04T17:49:57.941Z,37.13
2017-11-04T17:52:26.254Z,40.23
2017-11-04T17:54:54.606Z,37.63
2017-11-04T17:57:22.920Z,45.10
2017-11-04T17:59:51.232Z,32.50
2017-11-04T18:02:19.543Z,43.00
2017-11-04T18:04:48.639Z,32.10
2017-11-04T18:07:16.957Z,34.93
2017-11-04T18:09:46.028Z,47.93
2017-11-04T18:12:14.332Z,35.30
2017-11-04T18:14:43.396Z,40.47
2017-11-04T18:17:11.698Z,33.10
2017-11-04T18:19:40.004Z,32.77
2017-11-04T18:22:08.337Z,32.10
2017-11-04T18:24:36.635Z,40.57
2017-11-04T18:27:04.952Z,35.97
2017-11-04T18:29:33.259Z,45.87
2017-11-04T18:32:01.618Z,36.00
2017-11-04T18:34:30.006Z,43.50
2017-11-04T18:36:58.295Z,35.90
2017-11-04T18:39:26.585Z,35.50
2017-11-04T18:41:54.884Z,36.07
2017-11-04T18:44:23.192Z,40.60
2017-11-04T18:46:51.486Z,47.73
2017-11-04T18:49:19.809Z,34.80
2017-11-04T18:51:48.119Z,40.27
2017-11-04T18:54:16.453Z,39.20
2017-11-04T18:56:44.747Z,41.47
2017-11-04T18:59:13.831Z,48.10
2017-11-04T19:01:42.144Z,41.80
2017-11-04T19:04:10.445Z,43.93
2017-11-04T19:06:39.514Z,51.03
2017-11-04T19:09:07.834Z,42.30
2017-11-04T19:11:36.906Z,32.53
2017-11-04T19:14:05.229Z,38.77
2017-11-04T19:16:33.558Z,42.10
2017-11-04T19:19:01.885Z,39.23
2017-11-04T19:21:30.316Z,40.27
2017-11-04T19:23:59.376Z,36.83
2017-11-04T19:26:27.718Z,40.17
2017-11-04T19:28:56.015Z,39.07
2017-11-04T19:31:24.321Z,38.17
2017-11-04T19:33:52.614Z,33.83
2017-11-04T19:36:20.915Z,34.63
2017-11-04T19:38:49.307Z,36.40
2017-11-04T19:41:17.624Z,39.00
2017-11-04T19:43:45.966Z,30.10
2017-11-04T19:46:14.262Z,36.07
2017-11-04T19:48:42.614Z,33.20
2017-11-04T19:51:10.918Z,29.77
2017-11-04T19:53:39.222Z,39.23
2017-11-04T19:56:07.554Z,31.80
2017-11-04T19:58:35.901Z,27.07
2017-11-04T20:01:04.201Z,32.53
2017-11-04T20:03:32.544Z,29.80
2017-11-04T20:06:01.632Z,32.97
2017-11-04T20:08:29.964Z,36.03
2017-11-04T20:10:58.510Z,31.13
2017-11-04T20:13:26.824Z,28.53
2017-11-04T20:15:55.138Z,25.63
2017-11-04T20:18:23.438Z,30.53
2017-11-04T20:20:51.772Z,27.93
2017-11-04T20:23:20.117Z,37.00
2017-11-04T20:25:48.417Z,31.37
2017-11-04T20:28:16.731Z,32.33
2017-11-04T20:30:45.037Z,32.87
2017-11-04T20:33:13.372Z,30.73
2017-11-04T20:35:41.706Z,31.93
2017-11-04T20:38:10.002Z,25.93
2017-11-04T20:40:38.332Z,32.87
2017-11-04T20:43:06.626Z,25.53
2017-11-04T20:45:35.129Z,22.43
2017-11-04T20:48:03.494Z,26.53
2017-11-04T20:50:31.842Z,28.73
2017-11-04T20:53:01.222Z,22.80
2017-11-04T20:55:29.605Z,21.97
2017-11-04T20:57:57.995Z,30.93
2017-11-04T21:00:27.129Z,30.80
2017-11-04T21:02:55.587Z,27.53
2017-11-04T21:05:23.971Z,27.60
2017-11-04T21:07:52.305Z,22.97
2017-11-04T21:10:20.667Z,27.50
2017-11-04T21:12:49.126Z,22.63
2017-11-04T21:15:18.427Z,26.23
2017-11-04T21:17:47.640Z,16.67
2017-11-04T21:20:15.959Z,16.33
2017-11-04T21:22:44.281Z,15.57
2017-11-04T21:25:13.416Z,16.67
2017-11-04T21:27:41.742Z,18.63
2017-11-04T21:30:10.151Z,13.63
2017-11-04T21:32:38.497Z,11.57
2017-11-04T21:35:06.820Z,14.67
2017-11-04T21:37:35.211Z,14.80
2017-11-04T21:40:03.792Z,13.07
2017-11-04T21:42:32.262Z,14.60
2017-11-04T21:45:00.607Z,15.30
2017-11-04T21:47:29.693Z,12.27
2017-11-04T21:49:58.113Z,12.30
2017-11-04T21:52:26.444Z,13.33
2017-11-04T21:54:54.758Z,16.10
2017-11-04T21:57:23.092Z,13.63
2017-11-04T21:59:51.439Z,16.07
2017-11-04T22:02:20.573Z,14.67
2017-11-04T22:04:49.728Z,15.50
2017-11-04T22:07:18.098Z,14.67
2017-11-04T22:09:46.488Z,11.87
2017-11-04T22:12:14.898Z,12.80
2017-11-04T22:14:43.215Z,12.00
2017-11-04T22:17:12.277Z,12.10
2017-11-04T22:19:40.608Z,12.60
2017-11-04T22:22:08.906Z,10.67
2017-11-04T22:24:37.281Z,14.60
2017-11-04T22:27:06.392Z,12.03
2017-11-04T22:29:35.491Z,12.00
2017-11-04T22:32:04.039Z,13.20
2017-11-04T22:34:32.381Z,13.93
2017-11-04T22:37:01.440Z,11.00
2017-11-04T22:39:29.735Z,21.83
2017-11-04T22:41:58.051Z,14.00
2017-11-04T22:44:26.349Z,14.87
2017-11-04T22:46:54.662Z,12.60
2017-11-04T22:49:22.975Z,16.60
2017-11-04T22:51:51.275Z,13.13
2017-11-04T22:54:19.572Z,12.43
2017-11-04T22:56:47.916Z,16.03
2017-11-04T22:59:16.285Z,15.83
2017-11-04T23:01:45.368Z,12.90
2017-11-04T23:04:13.792Z,13.77
2017-11-04T23:06:42.847Z,11.70
2017-11-04T23:09:11.156Z,13.40
2017-11-04T23:11:39.482Z,18.07
2017-11-04T23:14:08.536Z,15.10
2017-11-04T23:16:36.835Z,14.17
2017-11-04T23:19:05.769Z,14.23
2017-11-04T23:21:34.930Z,15.63
2017-11-04T23:24:03.267Z,16.73
2017-11-04T23:26:32.417Z,13.97
2017-11-04T23:29:00.808Z,15.33
2017-11-04T23:31:29.140Z,18.33
2017-11-04T23:33:57.504Z,13.23
2017-11-04T23:36:25.871Z,14.13
2017-11-04T23:38:54.244Z,17.70
2017-11-04T23:41:22.637Z,11.07
2017-11-04T23:43:51.766Z,16.60
2017-11-04T23:46:20.887Z,19.73
2017-11-04T23:48:49.286Z,15.70
2017-11-04T23:51:17.664Z,14.10
2017-11-04T23:53:45.999Z,10.57
2017-11-04T23:56:15.182Z,10.87
2017-11-04T23:58:44.357Z,13.00
